Time;durP1;ratioP1;P1;durP2;ratioP2;P2;SDS_P1;SDS_P2;PMS_P1;PMS_P2;Temp;Humidity;BMP_temperature;BMP_pressure;BME280_temperature;BME280_humidity;BME280_pressure;Samples;Min_cycle;Max_cycle;Signal;HPM_P1;HPM_P2
2023/07/25 00:02:13;;;;;;;;;3.00;3.00;;;;;20.25;53.98;100068.34;5042096;28;45223;-63
2023/07/25 00:04:38;;;;;;;;;4.00;3.50;;;;;20.25;53.97;100055.91;5041534;28;45263;-63
2023/07/25 00:07:03;;;;;;;;;3.00;3.00;;;;;20.27;54.93;100056.63;5042209;28;45744;-63
2023/07/25 00:09:29;;;;;;;;;4.00;3.50;;;;;20.25;55.03;100050.56;5042192;28;45615;-63
2023/07/25 00:11:54;;;;;;;;;3.00;3.00;;;;;20.19;54.65;100048.28;5041719;28;49249;-63
2023/07/25 00:14:19;;;;;;;;;3.50;3.50;;;;;20.14;55.11;100053.06;5024250;28;46935;-63
2023/07/25 00:16:45;;;;;;;;;3.25;3.25;;;;;20.17;54.93;100060.84;5042165;28;45281;-63
2023/07/25 00:19:10;;;;;;;;;4.25;3.00;;;;;20.15;54.39;100065.47;5042042;28;45392;-63
2023/07/25 00:21:35;;;;;;;;;6.25;4.75;;;;;20.14;54.92;100072.59;5041288;28;53120;-63
2023/07/25 00:24:01;;;;;;;;;4.25;4.00;;;;;20.15;54.32;100070.78;5041953;28;48095;-63
2023/07/25 00:26:26;;;;;;;;;4.25;4.00;;;;;20.13;54.91;100065.53;5039986;28;45290;-63
2023/07/25 00:28:51;;;;;;;;;4.50;4.00;;;;;20.15;54.41;100070.78;5029660;28;45309;-63
2023/07/25 00:31:17;;;;;;;;;4.50;3.50;;;;;20.17;54.68;100074.19;5021497;28;51104;-63
2023/07/25 00:33:42;;;;;;;;;4.50;4.50;;;;;20.18;54.38;100075.91;5021947;28;45374;-63
2023/07/25 00:36:07;;;;;;;;;6.75;4.50;;;;;20.18;54.83;100067.06;5037975;28;45338;-63
2023/07/25 00:38:33;;;;;;;;;5.00;4.00;;;;;20.19;54.82;100066.09;5041756;28;45325;-63
2023/07/25 00:40:58;;;;;;;;;3.00;3.00;;;;;20.18;54.59;100067.91;5041336;28;46323;-63
2023/07/25 00:43:24;;;;;;;;;3.50;3.00;;;;;20.14;54.53;100058.41;5041573;28;47735;-63
2023/07/25 00:45:49;;;;;;;;;6.25;5.50;;;;;20.14;54.62;100059.25;5041678;28;45333;-63
2023/07/25 00:48:14;;;;;;;;;4.25;3.50;;;;;20.14;54.97;100048.56;5041776;28;45456;-63
2023/07/25 00:50:40;;;;;;;;;6.50;5.50;;;;;20.12;54.68;100053.19;5040911;28;46265;-64
2023/07/25 00:53:06;;;;;;;;;7.50;4.50;;;;;20.09;54.77;100053.34;5041442;28;45491;-63
2023/07/25 00:55:32;;;;;;;;;3.00;2.25;;;;;20.09;55.23;100063.19;5041245;28;45468;-63
2023/07/25 00:57:58;;;;;;;;;5.75;4.50;;;;;20.05;54.80;100065.19;5041505;28;45229;-63
2023/07/25 01:00:23;;;;;;;;;5.50;4.50;;;;;20.04;55.18;100058.13;5039714;28;47122;-63
2023/07/25 01:02:48;;;;;;;;;2.25;2.25;;;;;20.01;54.69;100055.66;5041663;28;45226;-63
2023/07/25 01:05:14;;;;;;;;;3.00;1.75;;;;;19.99;54.70;100054.91;5041417;28;45215;-63
2023/07/25 01:07:40;;;;;;;;;2.00;2.00;;;;;19.95;54.85;100045.41;5041313;28;45322;-63
2023/07/25 01:10:07;;;;;;;;;2.00;2.00;;;;;19.91;55.05;100047.41;5039597;28;46075;-63
2023/07/25 01:12:32;;;;;;;;;4.00;2.00;;;;;19.91;54.74;100049.22;5041011;28;45337;-63
2023/07/25 01:14:57;;;;;;;;;2.25;1.50;;;;;19.90;54.74;100036.81;5040593;28;45444;-63
2023/07/25 01:17:24;;;;;;;;;3.75;3.25;;;;;19.88;54.64;100047.59;5041107;28;45410;-63
2023/07/25 01:19:51;;;;;;;;;3.00;3.00;;;;;19.89;54.92;100051.13;5041019;28;46632;-63
2023/07/25 01:22:17;;;;;;;;;4.50;4.00;;;;;19.86;55.30;100051.31;5040327;28;45546;-63
2023/07/25 01:24:47;;;;;;;;;3.00;3.00;;;;;19.84;55.21;100054.09;5039624;28;45490;-63
2023/07/25 01:27:13;;;;;;;;;3.00;3.00;;;;;19.79;55.14;100043.69;5039727;28;45861;-63
2023/07/25 01:29:38;;;;;;;;;3.50;3.00;;;;;19.75;55.28;100033.34;5040588;28;46026;-61
2023/07/25 01:32:04;;;;;;;;;4.25;3.50;;;;;19.72;55.02;100041.50;5040812;28;45337;-61
2023/07/25 01:34:29;;;;;;;;;2.25;2.25;;;;;19.67;55.55;100036.47;5040755;28;45432;-61
2023/07/25 01:36:55;;;;;;;;;4.50;2.00;;;;;19.63;56.08;100042.94;5040406;28;45527;-61
2023/07/25 01:39:20;;;;;;;;;2.00;2.00;;;;;19.57;56.16;100025.56;5040579;28;45322;-61
2023/07/25 01:41:46;;;;;;;;;2.00;1.50;;;;;19.56;56.16;100028.28;5040659;28;45311;-61
2023/07/25 01:44:12;;;;;;;;;2.00;2.00;;;;;19.47;56.07;100017.28;5040952;28;45440;-61
2023/07/25 01:46:40;;;;;;;;;1.00;1.00;;;;;19.47;55.59;100025.28;5040603;28;45284;-61
2023/07/25 01:49:06;;;;;;;;;2.00;1.00;;;;;19.43;55.97;100023.75;5040463;28;46323;-61
2023/07/25 01:51:31;;;;;;;;;4.00;1.00;;;;;19.41;55.90;100020.31;5040584;28;45187;-61
2023/07/25 01:53:58;;;;;;;;;1.00;1.00;;;;;19.41;56.00;100012.34;5022407;28;47801;-61
2023/07/25 01:56:25;;;;;;;;;1.75;1.00;;;;;19.39;55.88;100008.91;5040377;28;45435;-61
2023/07/25 01:58:50;;;;;;;;;1.00;1.00;;;;;19.37;56.17;100010.81;5040116;28;46264;-61
2023/07/25 02:01:15;;;;;;;;;2.00;2.00;;;;;19.36;55.72;100008.22;5040339;28;45290;-61
2023/07/25 02:03:41;;;;;;;;;2.00;2.00;;;;;19.35;56.21;100006.53;5040456;28;45297;-61
2023/07/25 02:06:06;;;;;;;;;1.00;1.00;;;;;19.33;55.96;100007.47;5040194;28;45302;-61
2023/07/25 02:08:32;;;;;;;;;2.00;2.00;;;;;19.30;56.21;99999.66;5040203;28;46120;-61
2023/07/25 02:10:57;;;;;;;;;1.25;1.25;;;;;19.30;55.85;100002.34;5031136;28;45284;-61
2023/07/25 02:13:22;;;;;;;;;1.00;1.00;;;;;19.27;56.42;99997.22;5036618;28;45342;-61
2023/07/25 02:15:47;;;;;;;;;1.00;1.00;;;;;19.28;56.04;100004.25;5040018;28;49337;-61
2023/07/25 02:18:13;;;;;;;;;2.00;2.00;;;;;19.28;55.73;100003.38;5040037;28;46540;-60
2023/07/25 02:20:38;;;;;;;;;2.50;2.50;;;;;19.27;56.14;99999.88;5040257;28;45322;-60
2023/07/25 02:23:03;;;;;;;;;2.00;2.00;;;;;19.29;55.98;99994.44;5039795;28;48463;-60
2023/07/25 02:25:29;;;;;;;;;1.75;1.75;;;;;19.30;56.12;99999.66;5039531;28;45515;-61
2023/07/25 02:27:55;;;;;;;;;1.25;1.25;;;;;19.32;55.76;99991.59;5039595;28;46063;-60
2023/07/25 02:30:21;;;;;;;;;1.50;1.50;;;;;19.34;55.78;99997.69;5040160;28;45258;-61
2023/07/25 02:32:47;;;;;;;;;3.75;3.75;;;;;19.36;55.98;99992.25;5040206;28;45170;-63
2023/07/25 02:35:14;;;;;;;;;2.00;2.00;;;;;19.39;55.92;99997.41;5039747;28;45511;-63
2023/07/25 02:37:39;;;;;;;;;3.00;3.00;;;;;19.40;55.61;99985.78;5034135;28;46164;-63
2023/07/25 02:40:06;;;;;;;;;2.00;2.00;;;;;19.39;56.22;99978.75;5019850;28;45321;-63
2023/07/25 02:42:31;;;;;;;;;3.75;2.50;;;;;19.44;56.07;99984.63;5019921;28;45476;-63
2023/07/25 02:44:56;;;;;;;;;2.75;2.75;;;;;19.45;55.76;99979.19;5019729;28;45318;-63
2023/07/25 02:47:21;;;;;;;;;1.75;1.75;;;;;19.48;56.13;99986.16;5019753;28;46017;-64
2023/07/25 02:49:47;;;;;;;;;4.00;3.00;;;;;19.49;56.35;99986.03;5020118;28;45364;-63
2023/07/25 02:52:12;;;;;;;;;2.00;2.00;;;;;19.49;56.38;99975.38;5019517;28;45658;-63
2023/07/25 02:54:37;;;;;;;;;3.00;3.00;;;;;19.49;56.15;99967.38;5019963;28;45387;-63
2023/07/25 02:57:03;;;;;;;;;3.00;3.00;;;;;19.52;55.80;99968.16;5019508;28;45439;-64
2023/07/25 02:59:29;;;;;;;;;1.75;1.50;;;;;19.52;56.08;99961.03;5031246;28;45216;-63
2023/07/25 03:01:54;;;;;;;;;4.00;4.00;;;;;19.54;55.92;99963.59;5039668;28;45515;-64
2023/07/25 03:04:19;;;;;;;;;1.25;1.25;;;;;19.57;56.07;99966.06;5039963;28;45400;-63
2023/07/25 03:06:45;;;;;;;;;2.50;2.50;;;;;19.57;56.11;99968.72;5039298;28;45330;-63
2023/07/25 03:09:10;;;;;;;;;1.75;1.75;;;;;19.57;55.69;99976.72;5039812;28;45477;-63
2023/07/25 03:11:35;;;;;;;;;2.00;2.00;;;;;19.57;55.87;99979.38;5039512;28;45218;-63
2023/07/25 03:14:01;;;;;;;;;2.25;1.75;;;;;19.53;56.05;99972.53;5039643;28;45202;-64
2023/07/25 03:16:26;;;;;;;;;3.00;3.00;;;;;19.52;55.96;99973.50;5039375;28;45262;-63
2023/07/25 03:18:51;;;;;;;;;3.25;3.25;;;;;19.53;55.79;99976.03;5039485;28;45194;-63
2023/07/25 03:21:17;;;;;;;;;3.75;3.75;;;;;19.57;56.13;99992.69;5035238;28;48985;-63
2023/07/25 03:23:42;;;;;;;;;4.25;4.25;;;;;19.58;56.03;99986.41;5038176;28;45493;-63
2023/07/25 03:26:07;;;;;;;;;5.50;5.50;;;;;19.57;56.00;99990.03;5022032;28;45316;-63
2023/07/25 03:28:33;;;;;;;;;7.00;6.00;;;;;19.56;56.42;99989.19;5019391;28;45266;-63
2023/07/25 03:30:58;;;;;;;;;6.00;6.00;;;;;19.57;56.01;99982.03;5019493;28;45247;-63
2023/07/25 03:33:23;;;;;;;;;7.00;6.00;;;;;19.58;56.06;99994.41;5019386;28;45592;-63
2023/07/25 03:35:49;;;;;;;;;7.00;6.00;;;;;19.56;56.17;99989.19;5019090;28;46156;-63
2023/07/25 03:38:14;;;;;;;;;9.25;8.75;;;;;19.57;55.72;99996.25;5033971;28;45411;-63
2023/07/25 03:40:39;;;;;;;;;7.25;7.25;;;;;19.58;56.31;100002.41;5042618;28;45297;-63
2023/07/25 03:43:04;;;;;;;;;7.00;6.50;;;;;19.57;56.35;99998.91;5042453;28;49933;-63
2023/07/25 03:45:30;;;;;;;;;6.00;6.00;;;;;19.57;56.17;100006.03;5042452;28;46609;-63
2023/07/25 03:47:55;;;;;;;;;7.00;6.00;;;;;19.59;56.11;99999.63;5042626;28;45720;-73
2023/07/25 03:50:20;;;;;;;;;7.75;5.75;;;;;19.59;55.75;100007.63;5042754;28;45368;-74
2023/07/25 03:52:46;;;;;;;;;7.00;7.00;;;;;19.56;56.12;99999.84;5042314;28;45403;-73
2023/07/25 03:55:11;;;;;;;;;7.00;7.00;;;;;19.59;56.03;100009.47;5042231;28;45333;-73
2023/07/25 03:57:36;;;;;;;;;9.00;6.50;;;;;19.55;55.69;100002.63;5042509;28;45376;-73
2023/07/25 04:00:02;;;;;;;;;10.00;7.00;;;;;19.59;55.63;100006.78;5042383;28;45356;-74
2023/07/25 04:02:28;;;;;;;;;6.75;6.00;;;;;19.59;55.63;100009.47;5042411;28;45230;-72
2023/07/25 04:04:53;;;;;;;;;5.00;5.00;;;;;19.60;55.86;100011.19;5042023;28;45977;-73
2023/07/25 04:07:18;;;;;;;;;7.00;7.00;;;;;19.59;55.78;100004.13;5042005;28;48089;-73
2023/07/25 04:09:44;;;;;;;;;7.75;6.75;;;;;19.55;55.70;100003.47;5040728;28;45246;-73
2023/07/25 04:12:09;;;;;;;;;5.75;5.75;;;;;19.59;55.52;100004.13;5041947;28;47163;-73
2023/07/25 04:14:34;;;;;;;;;3.75;3.75;;;;;19.53;55.65;99988.53;5041966;28;45872;-72
2023/07/25 04:17:00;;;;;;;;;6.50;6.50;;;;;19.59;55.97;99999.63;5042191;28;45260;-73
2023/07/25 04:19:25;;;;;;;;;5.25;5.00;;;;;19.57;56.13;99998.91;5042137;28;45301;-70
2023/07/25 04:21:50;;;;;;;;;6.25;5.50;;;;;19.51;55.65;99993.09;5041643;28;49153;-70
2023/07/25 04:24:16;;;;;;;;;4.00;3.75;;;;;19.55;55.82;100029.28;5041770;28;46329;-70
2023/07/25 04:26:41;;;;;;;;;4.00;4.00;;;;;19.52;55.75;100038.31;5041915;28;45143;-74
2023/07/25 04:29:06;;;;;;;;;7.00;6.00;;;;;19.49;55.82;100035.81;5041931;28;45317;-73
2023/07/25 04:31:31;;;;;;;;;5.25;4.25;;;;;19.47;56.27;100032.38;5042086;28;45392;-74
2023/07/25 04:33:57;;;;;;;;;6.50;6.25;;;;;19.44;56.31;100038.75;5041790;28;45494;-74
2023/07/25 04:36:22;;;;;;;;;6.00;5.50;;;;;19.45;55.72;100043.16;5041425;28;46719;-75
2023/07/25 04:38:48;;;;;;;;;7.00;6.00;;;;;19.38;56.29;100033.81;5041680;28;45475;-76
2023/07/25 04:41:13;;;;;;;;;6.50;6.00;;;;;19.43;56.28;100044.19;5041378;28;45462;-76
2023/07/25 04:43:38;;;;;;;;;6.75;6.00;;;;;19.40;55.82;100037.25;5023741;28;46172;-75
2023/07/25 04:46:04;;;;;;;;;5.25;5.25;;;;;19.42;55.98;100045.13;5041525;28;45423;-75
2023/07/25 04:48:29;;;;;;;;;6.00;4.00;;;;;19.42;55.84;100039.81;5041069;28;46034;-74
2023/07/25 04:50:54;;;;;;;;;4.75;4.25;;;;;19.40;55.98;100042.59;5040998;28;45352;-73
2023/07/25 04:53:20;;;;;;;;;7.00;6.00;;;;;19.37;55.97;100034.78;5040125;28;47104;-73
2023/07/25 04:55:45;;;;;;;;;10.00;8.25;;;;;19.35;55.92;100031.34;5041215;28;45347;-73
2023/07/25 04:58:11;;;;;;;;;6.00;5.00;;;;;19.35;56.25;100046.50;5023523;28;45255;-73
2023/07/25 05:00:36;;;;;;;;;7.75;6.50;;;;;19.29;56.24;100045.06;5041364;28;45392;-74
2023/07/25 05:03:02;;;;;;;;;9.50;8.75;;;;;19.30;56.18;100057.44;5033341;28;45997;-62
2023/07/25 05:05:27;;;;;;;;;44.50;34.50;;;;;19.27;55.85;100057.59;5021455;28;45397;-62
2023/07/25 05:07:52;;;;;;;;;8.75;6.75;;;;;19.26;55.97;100061.25;5021140;28;45533;-62
2023/07/25 05:10:17;;;;;;;;;7.00;6.25;;;;;19.25;56.34;100070.16;5021250;28;45432;-63
2023/07/25 05:12:43;;;;;;;;;8.00;7.75;;;;;19.25;56.14;100078.16;5030160;28;55281;-63
2023/07/25 05:15:08;;;;;;;;;8.75;6.25;;;;;19.25;56.21;100080.81;5041042;28;45326;-63
2023/07/25 05:17:34;;;;;;;;;8.50;5.25;;;;;19.24;56.29;100084.44;5041327;28;45241;-63
2023/07/25 05:19:59;;;;;;;;;8.00;5.00;;;;;19.24;55.77;100085.28;5041071;28;45207;-63
2023/07/25 05:22:24;;;;;;;;;4.50;4.50;;;;;19.26;56.28;100083.38;5040362;28;60791;-63
2023/07/25 05:24:50;;;;;;;;;35.25;31.00;;;;;19.23;56.45;100080.94;5040690;28;45296;-62
2023/07/25 05:27:15;;;;;;;;;16.50;15.25;;;;;19.25;56.23;100080.81;5041309;28;45210;-63
2023/07/25 05:29:40;;;;;;;;;7.50;7.50;;;;;19.26;55.82;100082.53;5039110;28;45536;-62
2023/07/25 05:32:06;;;;;;;;;5.75;5.75;;;;;19.29;55.87;100082.34;5040854;28;45257;-63
2023/07/25 05:34:32;;;;;;;;;8.00;7.00;;;;;19.29;56.09;100083.19;5040699;28;45496;-63
2023/07/25 05:36:57;;;;;;;;;8.75;7.75;;;;;19.30;56.60;100084.91;5040890;28;45589;-61
2023/07/25 05:39:22;;;;;;;;;6.00;6.00;;;;;19.31;56.48;100083.97;5040638;28;49635;-63
2023/07/25 05:41:47;;;;;;;;;7.00;7.00;;;;;19.35;56.19;100089.97;5040791;28;46173;-63
2023/07/25 05:44:13;;;;;;;;;5.00;5.00;;;;;19.36;56.15;100089.00;5040454;28;46059;-63
2023/07/25 05:46:38;;;;;;;;;4.00;4.00;;;;;19.37;56.28;100087.19;5040536;28;49256;-62
2023/07/25 05:49:03;;;;;;;;;4.75;3.50;;;;;19.39;55.99;100079.97;5040690;28;45303;-63
2023/07/25 05:51:29;;;;;;;;;5.75;5.75;;;;;19.42;56.37;100093.97;5040518;28;45419;-62
2023/07/25 05:53:54;;;;;;;;;5.75;5.25;;;;;19.43;56.55;100086.81;5040424;28;45234;-63
2023/07/25 05:56:19;;;;;;;;;7.00;6.00;;;;;19.46;56.13;100092.81;5040421;28;45285;-63
2023/07/25 05:58:44;;;;;;;;;6.00;6.00;;;;;19.43;55.93;100086.81;5040102;28;46342;-63
2023/07/25 06:01:10;;;;;;;;;5.00;4.75;;;;;19.47;56.51;100080.34;5039635;28;45319;-63
2023/07/25 06:03:35;;;;;;;;;4.25;4.25;;;;;19.50;55.96;100090.81;5040211;28;45339;-63
2023/07/25 06:06:01;;;;;;;;;9.50;6.75;;;;;19.51;55.99;100097.88;5040294;28;45498;-62
2023/07/25 06:08:26;;;;;;;;;6.25;6.25;;;;;19.54;56.26;100095.00;5038049;28;45608;-63
2023/07/25 06:10:51;;;;;;;;;8.00;7.00;;;;;19.55;56.02;100098.53;5039843;28;45432;-63
2023/07/25 06:13:17;;;;;;;;;9.50;6.25;;;;;19.57;56.41;100109.94;5040145;28;45368;-63
2023/07/25 06:15:43;;;;;;;;;6.25;6.25;;;;;19.57;56.19;100113.50;5040389;28;45284;-63
2023/07/25 06:18:08;;;;;;;;;10.00;6.75;;;;;19.57;56.42;100118.81;5040178;28;45251;-62
2023/07/25 06:20:34;;;;;;;;;9.00;7.00;;;;;19.60;56.08;100128.44;5039704;28;57506;-60
2023/07/25 06:23:02;;;;;;;;;7.00;6.50;;;;;19.59;56.43;100132.88;5039813;28;45217;-60
2023/07/25 06:25:28;;;;;;;;;5.50;5.00;;;;;19.60;56.38;100125.75;5039912;28;47624;-63
2023/07/25 06:27:53;;;;;;;;;6.50;6.50;;;;;19.60;56.10;100131.09;5039908;28;45256;-62
2023/07/25 06:30:19;;;;;;;;;8.50;7.00;;;;;19.60;55.88;100131.09;5040121;28;45354;-63
2023/07/25 06:32:45;;;;;;;;;7.25;7.25;;;;;19.62;55.99;100126.50;5039855;28;45504;-63
2023/07/25 06:35:10;;;;;;;;;7.75;7.00;;;;;19.62;56.08;100131.84;5039897;28;45481;-64
2023/07/25 06:37:36;;;;;;;;;8.25;7.25;;;;;19.59;56.48;100129.38;5039348;28;45362;-62
2023/07/25 06:40:02;;;;;;;;;7.75;7.50;;;;;19.61;56.10;100132.81;5039781;28;45440;-63
2023/07/25 06:42:28;;;;;;;;;6.25;6.25;;;;;19.60;56.07;100133.75;5039890;28;45252;-62
2023/07/25 06:44:54;;;;;;;;;8.50;8.25;;;;;19.59;55.87;100127.56;5039997;28;45515;-62
2023/07/25 06:47:19;;;;;;;;;10.25;6.75;;;;;19.58;56.29;100136.50;5039691;28;45199;-62
2023/07/25 06:49:45;;;;;;;;;8.25;7.00;;;;;19.56;56.22;100138.41;5039686;28;45183;-62
2023/07/25 06:52:10;;;;;;;;;11.25;9.50;;;;;19.56;55.92;100142.88;5039673;28;45218;-62
2023/07/25 06:54:37;;;;;;;;;12.75;11.00;;;;;19.56;56.32;100148.19;5039755;28;45855;-62
2023/07/25 06:57:03;;;;;;;;;15.75;12.00;;;;;19.53;55.90;100143.06;5039312;28;45336;-62
2023/07/25 06:59:29;;;;;;;;;13.00;11.50;;;;;19.53;56.06;100148.41;5039469;28;45278;-62
2023/07/25 07:01:55;;;;;;;;;11.50;10.25;;;;;19.52;55.88;100154.69;5039520;28;45355;-62
2023/07/25 07:04:20;;;;;;;;;13.25;12.00;;;;;19.48;55.79;100152.22;5028403;28;45341;-63
2023/07/25 07:06:46;;;;;;;;;14.50;14.50;;;;;19.48;55.93;100164.66;5019394;28;45306;-63
2023/07/25 07:09:11;;;;;;;;;14.00;13.75;;;;;19.47;56.04;100166.47;5019543;28;45380;-63
2023/07/25 07:11:36;;;;;;;;;14.00;13.75;;;;;19.44;55.92;100165.81;5018239;28;47229;-63
2023/07/25 07:14:01;;;;;;;;;15.00;14.00;;;;;19.42;56.23;100170.34;5043085;28;45421;-63
2023/07/25 07:16:27;;;;;;;;;15.50;11.00;;;;;19.40;56.24;100174.94;5042859;28;45404;-63
2023/07/25 07:18:52;;;;;;;;;13.75;11.00;;;;;19.35;56.28;100177.03;5042945;28;50034;-63
2023/07/25 07:21:18;;;;;;;;;14.00;12.75;;;;;19.32;55.63;100188.72;5042513;28;45187;-63
2023/07/25 07:23:43;;;;;;;;;14.00;12.00;;;;;19.29;56.05;100195.06;5043194;28;45163;-63
2023/07/25 07:26:08;;;;;;;;;15.75;14.00;;;;;19.29;56.01;100195.06;5042739;28;45228;-63
2023/07/25 07:28:34;;;;;;;;;17.25;16.25;;;;;19.26;55.92;100194.41;5042858;28;45229;-63
2023/07/25 07:30:59;;;;;;;;;12.25;11.75;;;;;19.24;55.67;100206.94;5018249;28;45294;-63
2023/07/25 07:33:25;;;;;;;;;12.75;12.75;;;;;19.19;55.53;100214.34;5022641;28;52536;-63
2023/07/25 07:35:50;;;;;;;;;11.75;11.00;;;;;19.17;55.96;100211.78;5022461;28;45799;-63
2023/07/25 07:38:15;;;;;;;;;13.25;9.75;;;;;19.12;56.01;100214.72;5035642;28;46234;-63
2023/07/25 07:40:41;;;;;;;;;11.25;9.75;;;;;19.08;55.72;100218.50;5042429;28;45305;-63
2023/07/25 07:43:06;;;;;;;;;9.50;8.50;;;;;19.05;55.63;100226.66;5042787;28;45780;-63
2023/07/25 07:45:32;;;;;;;;;11.25;10.50;;;;;19.01;55.58;100227.78;5042525;28;45599;-63
2023/07/25 07:47:57;;;;;;;;;17.00;11.75;;;;;19.01;55.80;100235.78;5042606;28;47356;-63
2023/07/25 07:50:22;;;;;;;;;12.75;12.75;;;;;18.97;55.73;100236.91;5042513;28;45579;-63
2023/07/25 07:52:48;;;;;;;;;8.00;8.00;;;;;18.96;55.67;100237.84;5042646;28;45318;-63
2023/07/25 07:55:14;;;;;;;;;10.25;10.25;;;;;18.89;55.43;100236.44;5042143;28;45462;-63
2023/07/25 07:57:44;;;;;;;;;10.75;10.00;;;;;18.90;55.67;100252.34;5042408;28;46339;-63
2023/07/25 08:00:11;;;;;;;;;7.25;7.25;;;;;18.89;55.78;100247.94;5041799;28;45187;-63
2023/07/25 08:02:37;;;;;;;;;9.00;7.25;;;;;18.86;55.79;100257.94;5042544;28;45265;-63
2023/07/25 08:05:03;;;;;;;;;7.25;7.00;;;;;18.82;55.61;100262.56;5042245;28;45459;-63
2023/07/25 08:07:28;;;;;;;;;5.00;5.00;;;;;18.78;55.76;100253.88;5041940;28;46573;-63
2023/07/25 08:09:54;;;;;;;;;6.00;6.00;;;;;18.76;55.52;100266.41;5042091;28;45324;-63
2023/07/25 08:12:20;;;;;;;;;5.25;5.00;;;;;18.72;55.75;100264.88;5042351;28;45288;-63
2023/07/25 08:14:46;;;;;;;;;9.00;7.00;;;;;18.71;55.13;100276.47;5041846;28;45467;-63
2023/07/25 08:17:13;;;;;;;;;6.50;6.50;;;;;18.67;55.24;100282.91;5042025;28;49934;-63
2023/07/25 08:19:38;;;;;;;;;6.00;6.00;;;;;18.68;55.51;100292.59;5042036;28;45178;-63
2023/07/25 08:22:04;;;;;;;;;4.75;4.00;;;;;18.63;55.22;100294.66;5041875;28;45206;-63
2023/07/25 08:24:29;;;;;;;;;6.00;5.75;;;;;18.63;55.13;100305.31;5041054;28;45178;-63
2023/07/25 08:26:54;;;;;;;;;5.25;4.75;;;;;18.60;55.11;100305.47;5041807;28;46843;-63
2023/07/25 08:29:20;;;;;;;;;5.75;4.75;;;;;18.59;55.24;100307.28;5041827;28;45179;-63
2023/07/25 08:31:45;;;;;;;;;4.25;4.00;;;;;18.57;55.29;100310.97;5042178;28;45217;-63
2023/07/25 08:34:10;;;;;;;;;3.75;3.75;;;;;18.58;55.13;100324.19;5041850;28;45545;-63
2023/07/25 08:36:36;;;;;;;;;4.25;4.25;;;;;18.56;55.08;100323.38;5041539;28;45248;-63
2023/07/25 08:39:01;;;;;;;;;6.00;3.00;;;;;18.56;55.12;100319.88;5041660;28;45281;-63
2023/07/25 08:41:34;;;;;;;;;2.50;2.00;;;;;18.55;55.46;100319.00;5041935;28;45209;-63
2023/07/25 08:44:01;;;;;;;;;3.00;2.00;;;;;18.56;55.03;100317.22;5041755;28;45295;-63
2023/07/25 08:46:28;;;;;;;;;3.25;2.75;;;;;18.54;55.45;100314.66;5041466;28;46300;-63
2023/07/25 08:49:00;;;;;;;;;1.50;1.50;;;;;18.58;55.02;100320.63;5041437;28;45414;-63
2023/07/25 08:51:27;;;;;;;;;1.75;1.75;;;;;18.61;55.03;100324.00;5031792;28;45228;-63
2023/07/25 08:54:08;;;;;;;;;1.00;1.00;;;;;18.66;55.07;100329.06;5022966;28;45432;-63
2023/07/25 08:56:34;;;;;;;;;2.25;2.25;;;;;18.67;55.08;100334.31;5021228;28;45372;-63
2023/07/25 08:59:02;;;;;;;;;2.00;2.00;;;;;18.72;54.87;100352.69;5028757;28;45582;-63
2023/07/25 09:01:27;;;;;;;;;2.00;1.00;;;;;18.74;55.12;100357.94;5029369;28;45250;-63
2023/07/25 09:03:54;;;;;;;;;3.75;2.75;;;;;18.75;54.96;100363.16;5041497;28;45478;-63
2023/07/25 09:06:20;;;;;;;;;2.50;2.00;;;;;18.79;55.25;100372.72;5041067;28;46207;-63
2023/07/25 09:08:45;;;;;;;;;1.00;1.00;;;;;18.83;55.08;100371.59;5041428;28;45447;-64
2023/07/25 09:11:13;;;;;;;;;2.50;1.25;;;;;18.86;54.55;100377.72;5041148;28;45476;-64
2023/07/25 09:13:39;;;;;;;;;2.50;1.50;;;;;18.89;54.84;100385.50;5041166;28;45521;-64
2023/07/25 09:16:05;;;;;;;;;2.50;2.50;;;;;18.89;54.94;100405.00;5040912;28;46230;-64
2023/07/25 09:18:30;;;;;;;;;2.00;2.00;;;;;18.92;54.58;100414.69;5041338;28;45356;-64
2023/07/25 09:20:57;;;;;;;;;3.00;2.00;;;;;18.94;54.47;100421.66;5041131;28;45224;-64
2023/07/25 09:23:22;;;;;;;;;3.00;2.50;;;;;18.96;54.39;100419.72;5040938;28;45218;-64
2023/07/25 09:25:49;;;;;;;;;4.00;1.50;;;;;18.98;54.24;100430.28;5040690;28;47037;-64
2023/07/25 09:28:14;;;;;;;;;1.50;1.50;;;;;18.97;54.45;100432.09;5041042;28;45361;-64
2023/07/25 09:30:48;;;;;;;;;2.00;2.00;;;;;18.96;54.27;100429.53;5023106;28;45442;-64
2023/07/25 09:33:25;;;;;;;;;2.50;2.50;;;;;19.01;54.35;100438.13;5040951;28;45481;-64
2023/07/25 09:35:51;;;;;;;;;3.00;2.00;;;;;19.02;53.87;100436.31;5040230;28;46503;-64
2023/07/25 09:38:17;;;;;;;;;2.25;2.00;;;;;18.99;53.95;100451.53;5040787;28;45277;-63
2023/07/25 09:40:42;;;;;;;;;3.00;2.00;;;;;19.01;53.81;100454.09;5040578;28;45262;-64
2023/07/25 09:43:08;;;;;;;;;2.25;2.00;;;;;19.03;53.92;100459.34;5041065;28;45345;-63
2023/07/25 09:45:36;;;;;;;;;3.00;3.00;;;;;19.01;54.11;100464.75;5040446;28;46972;-63
2023/07/25 09:48:03;;;;;;;;;2.50;2.00;;;;;19.00;53.68;100471.91;5040712;28;45209;-63
2023/07/25 09:50:33;;;;;;;;;4.25;3.00;;;;;19.02;54.05;100470.94;5040628;28;45318;-63
2023/07/25 09:53:02;;;;;;;;;3.00;3.00;;;;;19.00;53.45;100463.91;5040174;28;45209;-63
2023/07/25 09:55:27;;;;;;;;;4.00;3.00;;;;;19.03;53.55;100473.53;5040068;28;47081;-63
2023/07/25 09:57:53;;;;;;;;;3.00;3.00;;;;;19.04;53.64;100480.56;5040196;28;53195;-63
2023/07/25 10:00:18;;;;;;;;;6.00;4.00;;;;;19.06;53.84;100477.84;5040682;28;45380;-63
2023/07/25 10:02:44;;;;;;;;;2.75;2.75;;;;;19.08;53.56;100483.91;5040562;28;45307;-64
2023/07/25 10:05:09;;;;;;;;;4.00;3.25;;;;;19.09;53.51;100481.16;5040151;28;46149;-64
2023/07/25 10:07:36;;;;;;;;;5.00;5.00;;;;;19.12;53.80;100481.00;5022562;28;45400;-64
2023/07/25 10:10:03;;;;;;;;;4.50;4.00;;;;;19.17;53.46;100483.44;5040347;28;45410;-64
2023/07/25 10:12:29;;;;;;;;;5.00;5.00;;;;;19.21;53.84;100484.13;5039672;28;45281;-64
2023/07/25 10:14:56;;;;;;;;;7.00;7.00;;;;;19.20;53.61;100483.25;5039916;28;45831;-64
2023/07/25 10:17:23;;;;;;;;;8.00;6.50;;;;;19.30;53.48;100494.28;5040121;28;45305;-64
2023/07/25 10:19:51;;;;;;;;;7.00;6.00;;;;;19.34;53.88;100495.81;5040125;28;45493;-64
2023/07/25 10:22:32;;;;;;;;;7.00;6.00;;;;;19.45;53.69;100496.09;5039841;28;45330;-64
2023/07/25 10:24:57;;;;;;;;;6.75;5.75;;;;;19.51;53.01;100502.03;5039941;28;46440;-64
2023/07/25 10:27:22;;;;;;;;;8.75;8.75;;;;;19.59;53.81;100495.31;5039914;28;45360;-64
2023/07/25 10:29:49;;;;;;;;;13.50;10.00;;;;;19.67;53.59;100499.38;5040338;28;45434;-64
2023/07/25 10:32:16;;;;;;;;;6.50;6.50;;;;;19.74;53.23;100514.94;5040027;28;45534;-64
2023/07/25 10:35:05;;;;;;;;;9.75;8.00;;;;;19.81;53.58;100494.97;5039928;28;46422;-64
2023/07/25 10:37:40;;;;;;;;;8.00;8.00;;;;;19.93;53.13;100497.91;5039614;28;45222;-64
2023/07/25 10:40:12;;;;;;;;;9.50;8.00;;;;;20.06;53.71;100498.94;5040005;28;45443;-64
2023/07/25 10:42:51;;;;;;;;;7.25;6.00;;;;;20.24;53.77;100491.66;5039752;28;45602;-64
2023/07/25 10:45:29;;;;;;;;;8.50;6.50;;;;;20.49;53.86;100505.38;5039193;28;45416;-64
2023/07/25 10:47:59;;;;;;;;;9.50;7.75;;;;;20.74;53.92;100504.78;5027665;28;45825;-64
2023/07/25 10:50:27;;;;;;;;;8.75;7.75;;;;;21.05;54.17;100498.41;5022483;28;45247;-64
2023/07/25 10:52:52;;;;;;;;;9.00;8.25;;;;;21.34;53.70;100498.41;5019981;28;45291;-64
2023/07/25 10:55:18;;;;;;;;;7.50;7.25;;;;;21.75;53.73;100508.28;5001691;28;45973;-64
2023/07/25 10:58:09;;;;;;;;;7.50;7.50;;;;;22.17;53.57;100508.22;5019779;28;45353;-64
2023/07/25 11:00:36;;;;;;;;;7.00;6.00;;;;;22.56;53.79;100513.72;5026852;28;45233;-64
2023/07/25 11:03:28;;;;;;;;;6.25;5.00;;;;;22.98;53.28;100511.72;5039672;28;46454;-64
2023/07/25 11:06:08;;;;;;;;;7.50;7.00;;;;;23.35;53.29;100506.44;5039304;28;45325;-64
2023/07/25 11:08:41;;;;;;;;;6.00;6.00;;;;;23.64;52.91;100514.19;5039536;28;45309;-64
2023/07/25 11:11:12;;;;;;;;;6.00;4.25;;;;;23.92;52.80;100514.88;5038697;28;45424;-64
2023/07/25 11:13:41;;;;;;;;;6.00;6.00;;;;;24.15;52.50;100512.31;5039399;28;45175;-64
2023/07/25 11:16:08;;;;;;;;;6.75;4.50;;;;;24.35;52.11;100510.81;5039243;28;45439;-64
2023/07/25 11:18:38;;;;;;;;;4.00;2.75;;;;;24.53;51.63;100510.38;5039370;28;45471;-64
2023/07/25 11:21:07;;;;;;;;;5.50;5.00;;;;;24.69;51.33;100520.81;5039526;28;45463;-64